createdAt,value
2023-01-03T00:00:09.557Z,102018.31
2023-01-03T00:00:32.285Z,102007.69
2023-01-03T00:00:54.011Z,102032.53
2023-01-03T00:01:16.992Z,102023.66
2023-01-03T00:01:39.119Z,102029.94
2023-01-03T00:02:00.925Z,102033.44
2023-01-03T00:02:22.767Z,102022.78
2023-01-03T00:02:45.497Z,101995.50
2023-01-03T00:03:07.801Z,102030.78
2023-01-03T00:03:29.396Z,102024.53
2023-01-03T00:03:53.259Z,102034.28
2023-01-03T00:04:16.238Z,102024.47
2023-01-03T00:04:37.956Z,102024.47
2023-01-03T00:04:59.934Z,102021.88
2023-01-03T00:05:21.524Z,102020.09
2023-01-03T00:05:44.387Z,102014.75
2023-01-03T00:06:14.993Z,102022.78
2023-01-03T00:06:40.394Z,102018.31
2023-01-03T00:07:02.621Z,102006.88
2023-01-03T00:07:35.120Z,102017.38
2023-01-03T00:07:58.372Z,102012.22
2023-01-03T00:08:21.737Z,102013.81
2023-01-03T00:08:43.923Z,102018.25
2023-01-03T00:09:14.263Z,102015.56
2023-01-03T00:09:37.079Z,102005.03
2023-01-03T00:09:58.839Z,102019.09
2023-01-03T00:10:25.477Z,102021.75
2023-01-03T00:10:49.035Z,102019.06
2023-01-03T00:11:18.003Z,102017.28
2023-01-03T00:12:00.840Z,102015.50
2023-01-03T00:12:30.721Z,102025.25
2023-01-03T00:12:54.366Z,102020.81
2023-01-03T00:13:17.791Z,102014.63
2023-01-03T00:13:43.320Z,102026.16
2023-01-03T00:14:05.947Z,102018.16
2023-01-03T00:14:32.944Z,102013.88
2023-01-03T00:14:55.957Z,102022.75
2023-01-03T00:15:19.404Z,102016.50
2023-01-03T00:15:43.247Z,102019.16
2023-01-03T00:16:16.220Z,102021.88
2023-01-03T00:16:38.469Z,102024.47
2023-01-03T00:17:04.345Z,102020.97
2023-01-03T00:17:26.593Z,102018.31
2023-01-03T00:17:50.283Z,102015.69
2023-01-03T00:18:13.252Z,102015.66
2023-01-03T00:18:35.857Z,102021.81
2023-01-03T00:18:57.953Z,102022.84
2023-01-03T00:19:20.106Z,102022.88
2023-01-03T00:19:45.658Z,101971.91
2023-01-03T00:20:10.308Z,102019.25
2023-01-03T00:20:33.960Z,102003.41
2023-01-03T00:20:55.605Z,102002.59
2023-01-03T00:21:18.435Z,102022.84
2023-01-03T00:21:42.714Z,102015.66
2023-01-03T00:22:05.758Z,102013.97
2023-01-03T00:22:34.058Z,102018.34
2023-01-03T00:22:55.937Z,102025.50
2023-01-03T00:23:17.832Z,102009.66
2023-01-03T00:23:40.934Z,102029.06
2023-01-03T00:24:05.651Z,102013.97
2023-01-03T00:24:28.632Z,101994.69
2023-01-03T00:24:52.605Z,102019.25
2023-01-03T00:25:15.322Z,102042.31
2023-01-03T00:25:38.332Z,102026.34
2023-01-03T00:26:09.812Z,102024.53
2023-01-03T00:26:32.267Z,102022.78
2023-01-03T00:26:54.422Z,102030.69
2023-01-03T00:27:21.401Z,102023.56
2023-01-03T00:27:43.382Z,102035.13
2023-01-03T00:28:06.797Z,102026.28
2023-01-03T00:28:28.422Z,102013.09
2023-01-03T00:28:57.050Z,102030.75
2023-01-03T00:29:20.234Z,102031.63
2023-01-03T00:29:43.073Z,102023.66
2023-01-03T00:30:09.393Z,102027.13
2023-01-03T00:30:32.335Z,102026.28
2023-01-03T00:30:54.692Z,102028.97
2023-01-03T00:31:16.465Z,102025.41
2023-01-03T00:31:39.316Z,102032.56
2023-01-03T00:32:04.472Z,102040.47
2023-01-03T00:32:27.872Z,102026.31
2023-01-03T00:32:50.325Z,102022.78
2023-01-03T00:33:14.779Z,102023.66
2023-01-03T00:33:38.373Z,102009.69
2023-01-03T00:34:00.415Z,102026.44
2023-01-03T00:34:22.302Z,102028.19
2023-01-03T00:34:49.610Z,102027.28
2023-01-03T00:35:11.579Z,102028.09
2023-01-03T00:35:33.636Z,102028.19
2023-01-03T00:35:55.905Z,102029.13
2023-01-03T00:36:18.718Z,102027.28
2023-01-03T00:36:41.562Z,102024.63
2023-01-03T00:37:03.956Z,102015.81
2023-01-03T00:37:25.661Z,102025.53
2023-01-03T00:37:48.205Z,102027.28
2023-01-03T00:38:09.914Z,102027.28
2023-01-03T00:38:33.057Z,102030.75
2023-01-03T00:38:54.687Z,102013.28
2023-01-03T00:39:17.600Z,101980.63
2023-01-03T00:39:39.767Z,102025.50
2023-01-03T00:40:01.426Z,101973.66
2023-01-03T00:40:23.200Z,102029.00
2023-01-03T00:40:44.830Z,102033.50
2023-01-03T00:41:09.790Z,102021.88
2023-01-03T00:41:31.661Z,102001.66
2023-01-03T00:41:54.197Z,102024.47
2023-01-03T00:42:15.977Z,102016.56
2023-01-03T00:42:52.630Z,102025.44
2023-01-03T00:43:30.382Z,102030.75
2023-01-03T00:43:52.229Z,102027.19
2023-01-03T00:44:14.239Z,102034.28
2023-01-03T00:44:36.868Z,102036.94
2023-01-03T00:44:58.491Z,102028.97
2023-01-03T00:45:25.309Z,102025.38
2023-01-03T00:45:47.378Z,102035.19
2023-01-03T00:46:11.860Z,102029.00
2023-01-03T00:46:34.103Z,102026.44
2023-01-03T00:46:55.794Z,102020.34
2023-01-03T00:47:17.468Z,102031.81
2023-01-03T00:47:42.797Z,102032.72
2023-01-03T00:48:04.910Z,102029.19
2023-01-03T00:48:27.290Z,102033.59
2023-01-03T00:48:49.935Z,102014.25
2023-01-03T00:49:12.882Z,102029.16
2023-01-03T00:49:36.845Z,102028.28
2023-01-03T00:50:00.182Z,102028.25
2023-01-03T00:50:23.477Z,102029.19
2023-01-03T00:50:46.813Z,102032.72
2023-01-03T00:51:15.029Z,102032.72
2023-01-03T00:51:39.340Z,102032.69
2023-01-03T00:52:02.998Z,102031.75
2023-01-03T00:52:31.927Z,102027.38
2023-01-03T00:52:59.171Z,102029.13
2023-01-03T00:53:22.100Z,102027.28
2023-01-03T00:53:47.473Z,102029.97
2023-01-03T00:54:11.248Z,102023.72
2023-01-03T00:54:35.584Z,102030.84
2023-01-03T00:54:57.763Z,102029.94
2023-01-03T00:55:20.862Z,102028.16
2023-01-03T00:55:46.579Z,102035.28
2023-01-03T00:56:12.381Z,102025.50
2023-01-03T00:56:38.541Z,102031.63
2023-01-03T00:57:01.488Z,102019.38
2023-01-03T00:57:24.447Z,102039.56
2023-01-03T00:57:46.226Z,102032.47
2023-01-03T00:58:07.890Z,102040.53
2023-01-03T00:58:30.346Z,102039.66
2023-01-03T00:58:53.183Z,102042.28
2023-01-03T00:59:16.648Z,102022.88
2023-01-03T00:59:39.777Z,102031.56
2023-01-03T01:00:02.357Z,102043.19
2023-01-03T01:00:25.948Z,102034.31
2023-01-03T01:00:47.610Z,102029.88
2023-01-03T01:01:11.155Z,102024.63
2023-01-03T01:01:43.977Z,102044.00
2023-01-03T01:02:09.173Z,102041.31
2023-01-03T01:02:31.114Z,102044.88
2023-01-03T01:02:53.403Z,102032.53
2023-01-03T01:03:17.970Z,102041.31
2023-01-03T01:03:42.738Z,102049.25
2023-01-03T01:04:08.945Z,102043.00
2023-01-03T01:04:31.722Z,102038.66
2023-01-03T01:04:54.793Z,102051.00
2023-01-03T01:05:16.484Z,102046.56
2023-01-03T01:05:38.966Z,102051.91
2023-01-03T01:06:00.603Z,102043.00
2023-01-03T01:06:24.974Z,102043.84
2023-01-03T01:06:48.420Z,102042.97
2023-01-03T01:07:10.072Z,102041.19
2023-01-03T01:07:32.644Z,102042.94
2023-01-03T01:07:54.283Z,102042.06
2023-01-03T01:08:15.937Z,102047.41
2023-01-03T01:08:37.572Z,102051.88
2023-01-03T01:09:01.955Z,102046.56
2023-01-03T01:09:25.246Z,102046.56
2023-01-03T01:09:46.893Z,102054.56
2023-01-03T01:10:09.323Z,102041.31
2023-01-03T01:10:31.874Z,102053.72
2023-01-03T01:11:02.695Z,102042.28
2023-01-03T01:11:25.714Z,102055.53
2023-01-03T01:11:48.755Z,102059.06
2023-01-03T01:12:10.431Z,102054.72
2023-01-03T01:12:32.095Z,102046.81
2023-01-03T01:12:55.412Z,102053.81
2023-01-03T01:13:17.032Z,102053.88
2023-01-03T01:13:40.290Z,102052.97
2023-01-03T01:14:02.005Z,102054.78
2023-01-03T01:14:26.681Z,102056.66
2023-01-03T01:14:49.394Z,102060.22
2023-01-03T01:15:11.920Z,102057.50
2023-01-03T01:15:35.105Z,102062.00
2023-01-03T01:16:01.428Z,102053.13
2023-01-03T01:16:52.743Z,102057.50
2023-01-03T01:17:20.677Z,102059.22
2023-01-03T01:17:44.140Z,102068.13
2023-01-03T01:18:06.848Z,102054.88
2023-01-03T01:18:28.642Z,102051.53
2023-01-03T01:18:53.884Z,102060.25
2023-01-03T01:19:16.169Z,102058.53
2023-01-03T01:19:40.962Z,102052.31
2023-01-03T01:20:02.580Z,102055.88
2023-01-03T01:20:24.190Z,102071.84
2023-01-03T01:20:45.817Z,102062.06
2023-01-03T01:21:09.941Z,102049.72
2023-01-03T01:21:32.765Z,102062.06
2023-01-03T01:21:54.465Z,102062.91
2023-01-03T01:22:16.200Z,102062.91
2023-01-03T01:22:37.889Z,102062.00
2023-01-03T01:23:00.422Z,102066.53
2023-01-03T01:23:22.081Z,102055.13
2023-01-03T01:23:44.568Z,102058.53
2023-01-03T01:24:08.185Z,102070.94
2023-01-03T01:24:32.490Z,102051.63
2023-01-03T01:24:54.072Z,102055.97
2023-01-03T01:25:15.773Z,102067.47
2023-01-03T01:25:38.341Z,102064.75
2023-01-03T01:26:00.365Z,102063.91
2023-01-03T01:26:23.939Z,102060.38
2023-01-03T01:26:46.883Z,102069.25
2023-01-03T01:27:08.584Z,102062.09
2023-01-03T01:27:31.592Z,102066.53
2023-01-03T01:27:53.171Z,102070.94
2023-01-03T01:28:14.862Z,102068.28
2023-01-03T01:28:37.565Z,102067.41
2023-01-03T01:28:59.370Z,102058.59
2023-01-03T01:29:21.387Z,102057.81
2023-01-03T01:29:43.050Z,102077.22
2023-01-03T01:30:06.194Z,102071.94
2023-01-03T01:30:27.869Z,102072.81
2023-01-03T01:30:50.898Z,102069.25
2023-01-03T01:31:16.101Z,102074.59
2023-01-03T01:31:38.698Z,102075.41
2023-01-03T01:32:01.659Z,102074.63
2023-01-03T01:32:23.378Z,102073.69
2023-01-03T01:32:45.985Z,102076.38
2023-01-03T01:33:07.677Z,102055.25
2023-01-03T01:33:31.522Z,102070.16
2023-01-03T01:33:54.501Z,102072.75
2023-01-03T01:34:17.736Z,102078.13
2023-01-03T01:34:39.719Z,102064.00
2023-01-03T01:35:01.449Z,102070.97
2023-01-03T01:35:23.060Z,102067.44
2023-01-03T01:35:45.798Z,102071.03
2023-01-03T01:36:08.870Z,102068.44
2023-01-03T01:36:33.635Z,102081.69
2023-01-03T01:36:56.531Z,102071.94
2023-01-03T01:37:18.122Z,102080.00
2023-01-03T01:37:39.831Z,102073.84
2023-01-03T01:38:01.484Z,102074.69
2023-01-03T01:38:23.196Z,102080.94
2023-01-03T01:38:45.691Z,102080.94
2023-01-03T01:39:11.455Z,102079.25
2023-01-03T01:39:33.752Z,102082.06
2023-01-03T01:39:55.320Z,102086.44
2023-01-03T01:40:19.055Z,102082.00
2023-01-03T01:40:41.684Z,102079.34
2023-01-03T01:41:03.824Z,102086.34
2023-01-03T01:41:45.193Z,102086.28
2023-01-03T01:42:31.693Z,102086.34
2023-01-03T01:43:11.000Z,102085.41
2023-01-03T01:43:51.404Z,102082.75
2023-01-03T01:44:49.307Z,102087.25
2023-01-03T01:45:14.470Z,102080.38
2023-01-03T01:45:36.270Z,102085.53
2023-01-03T01:46:04.442Z,102093.56
2023-01-03T01:46:30.060Z,102090.03
2023-01-03T01:46:53.697Z,102094.44
2023-01-03T01:47:20.584Z,102086.50
2023-01-03T01:47:50.650Z,102097.16
2023-01-03T01:48:14.364Z,102092.84
2023-01-03T01:48:37.026Z,102095.47
2023-01-03T01:49:03.249Z,102090.22
2023-01-03T01:49:26.133Z,102099.88
2023-01-03T01:49:53.109Z,102097.25
2023-01-03T01:50:24.582Z,102089.34
2023-01-03T01:50:50.632Z,102099.03
2023-01-03T01:51:13.220Z,102099.00
2023-01-03T01:51:36.254Z,102099.03
2023-01-03T01:51:58.995Z,102100.84
2023-01-03T01:52:22.126Z,102100.84
2023-01-03T01:52:51.848Z,102097.28
2023-01-03T01:53:18.496Z,102106.13
2023-01-03T01:53:42.745Z,102095.53
2023-01-03T01:54:06.845Z,102097.16
2023-01-03T01:54:29.066Z,102105.16
2023-01-03T01:54:53.829Z,102098.19
2023-01-03T01:55:18.835Z,102108.78
2023-01-03T01:55:43.440Z,102110.59
2023-01-03T01:56:09.477Z,102104.41
2023-01-03T01:56:35.170Z,102107.88
2023-01-03T01:56:57.825Z,102106.09
2023-01-03T01:57:22.468Z,102112.31
2023-01-03T01:57:44.642Z,102105.28
2023-01-03T01:58:08.909Z,102106.13
2023-01-03T01:58:35.471Z,102111.50
2023-01-03T01:58:57.727Z,102111.44
2023-01-03T01:59:19.440Z,102116.75
2023-01-03T01:59:42.366Z,102106.16
2023-01-03T02:00:05.084Z,102092.06
2023-01-03T02:00:26.919Z,102117.63
2023-01-03T02:00:48.613Z,102112.31
2023-01-03T02:01:14.746Z,102114.16
2023-01-03T02:01:37.022Z,102117.72
2023-01-03T02:01:58.969Z,102110.59
2023-01-03T02:02:23.204Z,102105.34
2023-01-03T02:02:49.347Z,102115.03
2023-01-03T02:03:11.757Z,102113.25
2023-01-03T02:03:33.655Z,102114.97
2023-01-03T02:04:01.160Z,102107.88
2023-01-03T02:04:26.942Z,102122.06
2023-01-03T02:04:52.301Z,102114.97
2023-01-03T02:05:17.012Z,102123.03
2023-01-03T02:05:44.112Z,102121.28
2023-01-03T02:06:09.177Z,102120.38
2023-01-03T02:06:32.569Z,102117.72
2023-01-03T02:06:56.380Z,102117.78
2023-01-03T02:07:20.656Z,102111.50
2023-01-03T02:07:44.314Z,102124.81
2023-01-03T02:08:06.200Z,102124.84
2023-01-03T02:08:28.146Z,102123.03
2023-01-03T02:08:50.125Z,102115.03
2023-01-03T02:09:14.442Z,102121.25
2023-01-03T02:09:38.557Z,102117.75
2023-01-03T02:10:00.743Z,102121.38
2023-01-03T02:10:36.390Z,102111.75
2023-01-03T02:11:20.435Z,102113.47
2023-01-03T02:12:14.398Z,102126.72
2023-01-03T02:12:58.897Z,102121.41
2023-01-03T02:13:31.988Z,102122.28
2023-01-03T02:14:02.854Z,102094.13
2023-01-03T02:14:45.956Z,102117.91
2023-01-03T02:15:17.981Z,102120.53
2023-01-03T02:15:58.242Z,102116.13
2023-01-03T02:16:48.464Z,102109.09
2023-01-03T02:17:18.428Z,102118.78
2023-01-03T02:17:54.579Z,102124.09
2023-01-03T02:18:37.901Z,102121.50
2023-01-03T02:19:16.739Z,102126.91
2023-01-03T02:20:05.043Z,102121.53
2023-01-03T02:20:52.062Z,102125.06
2023-01-03T02:21:54.161Z,102128.56
2023-01-03T02:22:45.968Z,102109.09
2023-01-03T02:23:37.064Z,102124.06
2023-01-03T02:24:31.283Z,102124.94
2023-01-03T02:25:37.290Z,102125.84
2023-01-03T02:26:23.595Z,102128.47
2023-01-03T02:26:54.008Z,102121.44
2023-01-03T02:27:42.091Z,102133.81
2023-01-03T02:28:45.010Z,102128.56
2023-01-03T02:29:45.802Z,102125.94
2023-01-03T02:30:32.692Z,102125.03
2023-01-03T02:30:58.669Z,102125.03
2023-01-03T02:31:25.508Z,102129.44
2023-01-03T02:31:55.260Z,102125.91
2023-01-03T02:32:23.790Z,102099.56
2023-01-03T02:32:52.687Z,102128.56
2023-01-03T02:33:24.118Z,102119.69
2023-01-03T02:33:54.875Z,102103.88
2023-01-03T02:34:22.142Z,102123.16
2023-01-03T02:34:50.440Z,102129.38
2023-01-03T02:35:18.900Z,102126.69
2023-01-03T02:35:53.764Z,102125.84
2023-01-03T02:36:25.550Z,102129.38
2023-01-03T02:36:59.124Z,102123.22
2023-01-03T02:37:31.417Z,102121.47
2023-01-03T02:38:02.332Z,102135.66
2023-01-03T02:38:29.363Z,102129.44
2023-01-03T02:38:57.953Z,102084.56
2023-01-03T02:39:25.606Z,102136.53
2023-01-03T02:39:54.322Z,102125.00
2023-01-03T02:40:24.035Z,102132.16
2023-01-03T02:40:51.504Z,102128.63
2023-01-03T02:41:23.656Z,102134.91
2023-01-03T02:41:48.132Z,102113.75
2023-01-03T02:42:33.787Z,102137.56
2023-01-03T02:42:58.848Z,102124.31
2023-01-03T02:43:27.857Z,102131.41
2023-01-03T02:43:54.983Z,102130.56
2023-01-03T02:44:23.819Z,102132.41
2023-01-03T02:44:54.525Z,102131.47
2023-01-03T02:45:21.925Z,102131.47
2023-01-03T02:46:02.630Z,102129.75
2023-01-03T02:46:30.306Z,102124.44
2023-01-03T02:46:57.941Z,102133.31
2023-01-03T02:47:25.239Z,102135.06
2023-01-03T02:47:52.864Z,102132.34
2023-01-03T02:48:19.225Z,102128.84
2023-01-03T02:48:49.414Z,102127.03
2023-01-03T02:49:19.205Z,102134.19
2023-01-03T02:49:45.120Z,102133.28
2023-01-03T02:50:11.305Z,102120.91
2023-01-03T02:50:42.473Z,102127.94
2023-01-03T02:51:09.333Z,102136.78
2023-01-03T02:51:36.012Z,102134.16
2023-01-03T02:52:03.656Z,102122.63
2023-01-03T02:52:30.673Z,102131.53
2023-01-03T02:52:56.853Z,102125.31
2023-01-03T02:53:25.883Z,102131.53
2023-01-03T02:53:51.796Z,102120.94
2023-01-03T02:54:20.429Z,102126.25
2023-01-03T02:54:45.445Z,102124.47
2023-01-03T02:55:15.957Z,102127.13
2023-01-03T02:55:39.542Z,102127.13
2023-01-03T02:56:09.755Z,102127.13
2023-01-03T02:56:40.430Z,102119.25
2023-01-03T02:57:08.486Z,102118.31
2023-01-03T02:57:35.437Z,102120.09
2023-01-03T02:58:06.801Z,102128.19
2023-01-03T02:58:35.072Z,102118.38
2023-01-03T02:59:01.489Z,102121.91
2023-01-03T02:59:30.318Z,102123.72
2023-01-03T02:59:54.487Z,102119.25
2023-01-03T03:00:21.336Z,102114.00
2023-01-03T03:00:48.863Z,102129.91
2023-01-03T03:01:13.381Z,102121.09
2023-01-03T03:01:37.272Z,102125.53
2023-01-03T03:02:01.309Z,102120.19
2023-01-03T03:02:26.721Z,102120.22
2023-01-03T03:02:52.044Z,102120.19
2023-01-03T03:03:18.205Z,102114.03
2023-01-03T03:03:40.969Z,102115.78
2023-01-03T03:04:03.653Z,102114.06
2023-01-03T03:04:25.653Z,102114.94
2023-01-03T03:04:52.429Z,102122.88
2023-01-03T03:05:22.161Z,102121.09
2023-01-03T03:05:50.041Z,102127.28
2023-01-03T03:06:21.208Z,102127.31
2023-01-03T03:06:48.604Z,102119.31
2023-01-03T03:07:19.372Z,102132.56
2023-01-03T03:07:41.623Z,102123.72
2023-01-03T03:08:04.649Z,102130.78
2023-01-03T03:08:26.453Z,102113.19
2023-01-03T03:08:48.941Z,102129.00
2023-01-03T03:09:11.576Z,102124.59
2023-01-03T03:09:33.276Z,102126.34
2023-01-03T03:10:14.649Z,102110.50
2023-01-03T03:10:56.310Z,102106.97
2023-01-03T03:11:36.690Z,102127.25
2023-01-03T03:12:20.138Z,102104.38
2023-01-03T03:13:03.477Z,102125.53
2023-01-03T03:13:30.645Z,102135.34
2023-01-03T03:13:57.616Z,102129.13
2023-01-03T03:14:24.284Z,102125.69
2023-01-03T03:14:50.117Z,102134.50
2023-01-03T03:15:14.550Z,102127.41
2023-01-03T03:15:42.236Z,102120.38
2023-01-03T03:16:11.564Z,102114.19
2023-01-03T03:16:50.200Z,102130.03
2023-01-03T03:17:15.936Z,102121.25
2023-01-03T03:17:40.522Z,102136.22
2023-01-03T03:18:08.371Z,102121.28
2023-01-03T03:18:41.957Z,102137.16
2023-01-03T03:19:35.767Z,102129.13
2023-01-03T03:20:16.750Z,102128.28
2023-01-03T03:20:56.716Z,102124.75
2023-01-03T03:21:39.232Z,102116.03
2023-01-03T03:22:21.173Z,102123.91
2023-01-03T03:23:06.838Z,102111.56
2023-01-03T03:23:49.732Z,102128.28
2023-01-03T03:24:32.882Z,102110.63
2023-01-03T03:25:00.620Z,102129.13
2023-01-03T03:25:28.019Z,102131.78
2023-01-03T03:25:53.654Z,102112.34
2023-01-03T03:26:20.933Z,102129.06
2023-01-03T03:26:47.277Z,102126.41
2023-01-03T03:27:31.887Z,102129.03
2023-01-03T03:28:16.639Z,102133.44
2023-01-03T03:28:43.553Z,102124.63
2023-01-03T03:29:11.965Z,102127.31
2023-01-03T03:29:34.064Z,102131.72
2023-01-03T03:29:58.267Z,102107.94
2023-01-03T03:30:25.019Z,102129.91
2023-01-03T03:30:51.977Z,102127.31
2023-01-03T03:31:18.195Z,102131.72
2023-01-03T03:31:47.091Z,102130.84
2023-01-03T03:32:09.004Z,102130.78
2023-01-03T03:32:35.205Z,102139.59
2023-01-03T03:33:01.403Z,102129.84
2023-01-03T03:33:26.338Z,102133.38
2023-01-03T03:33:51.886Z,102134.28
2023-01-03T03:34:19.341Z,102126.28
2023-01-03T03:34:43.165Z,102128.97
2023-01-03T03:35:09.198Z,102134.28
2023-01-03T03:35:35.492Z,102126.34
2023-01-03T03:36:03.358Z,102137.00
2023-01-03T03:36:32.908Z,102129.06
2023-01-03T03:37:00.121Z,102135.28
2023-01-03T03:37:25.916Z,102136.22
2023-01-03T03:37:51.507Z,102145.06
2023-01-03T03:38:18.165Z,102135.31
2023-01-03T03:38:42.282Z,102107.13
2023-01-03T03:39:04.712Z,102137.09
2023-01-03T03:39:46.834Z,102137.09
2023-01-03T03:40:28.954Z,102130.00
2023-01-03T03:41:18.149Z,102131.78
2023-01-03T03:42:03.295Z,102132.72
2023-01-03T03:42:48.838Z,102136.25
2023-01-03T03:43:39.200Z,102135.38
2023-01-03T03:44:23.457Z,102133.56
2023-01-03T03:45:03.142Z,102138.00
2023-01-03T03:45:31.992Z,102122.03
2023-01-03T03:46:02.670Z,102130.84
2023-01-03T03:46:30.925Z,102142.38
2023-01-03T03:47:04.282Z,102136.16
2023-01-03T03:47:34.704Z,102130.84
2023-01-03T03:48:04.686Z,102128.22
2023-01-03T03:48:52.475Z,102135.28
2023-01-03T03:49:38.703Z,102129.94
2023-01-03T03:50:04.976Z,102134.31
2023-01-03T03:50:29.421Z,102139.63
2023-01-03T03:50:54.124Z,102118.50
2023-01-03T03:51:20.803Z,102134.38
2023-01-03T03:51:44.645Z,102130.75
2023-01-03T03:52:10.999Z,102134.28
2023-01-03T03:52:39.212Z,102133.44
2023-01-03T03:53:08.562Z,102136.09
2023-01-03T03:53:34.663Z,102136.06
2023-01-03T03:53:57.961Z,102136.09
2023-01-03T03:54:22.699Z,102130.84
2023-01-03T03:54:52.643Z,102136.09
2023-01-03T03:55:18.115Z,102133.47
2023-01-03T03:55:49.663Z,102131.72
2023-01-03T03:56:17.559Z,102140.53
2023-01-03T03:56:44.030Z,102115.84
2023-01-03T03:57:12.958Z,102106.16
2023-01-03T03:57:39.995Z,102109.63
2023-01-03T03:58:08.351Z,102119.31
2023-01-03T03:58:34.251Z,102121.94
2023-01-03T03:59:01.617Z,102128.09
2023-01-03T03:59:27.670Z,102134.28
2023-01-03T04:00:00.037Z,102126.31
2023-01-03T04:00:28.801Z,102128.06
2023-01-03T04:00:52.399Z,102126.28
2023-01-03T04:01:19.939Z,102125.41
2023-01-03T04:01:43.217Z,102131.63
2023-01-03T04:02:10.919Z,102129.00
2023-01-03T04:02:35.557Z,102125.41
2023-01-03T04:02:59.907Z,102133.41
2023-01-03T04:03:23.887Z,102123.69
2023-01-03T04:03:48.781Z,102127.19
2023-01-03T04:04:15.626Z,102099.00
2023-01-03T04:04:42.484Z,102129.84
2023-01-03T04:05:10.743Z,102120.16
2023-01-03T04:05:36.613Z,102128.06
2023-01-03T04:06:01.414Z,102116.59
2023-01-03T04:06:28.299Z,102128.06
2023-01-03T04:06:52.998Z,102103.38
2023-01-03T04:07:14.670Z,102135.09
2023-01-03T04:07:36.623Z,102136.94
2023-01-03T04:07:59.185Z,102129.84
2023-01-03T04:08:21.029Z,102127.19
2023-01-03T04:08:42.944Z,102130.78
2023-01-03T04:09:04.836Z,102124.59
2023-01-03T04:09:27.444Z,102130.78
2023-01-03T04:09:49.170Z,102129.00
2023-01-03T04:10:12.002Z,102111.34
2023-01-03T04:10:37.742Z,102128.09
2023-01-03T04:11:06.371Z,102122.75
2023-01-03T04:11:28.055Z,102128.06
2023-01-03T04:11:49.630Z,102128.09
2023-01-03T04:12:11.363Z,102125.41
2023-01-03T04:12:34.067Z,102129.84
2023-01-03T04:12:55.934Z,102115.72
2023-01-03T04:13:17.617Z,102120.97
2023-01-03T04:13:39.752Z,102075.25
2023-01-03T04:14:02.644Z,102128.09
2023-01-03T04:14:24.375Z,102120.97
2023-01-03T04:14:46.155Z,102124.53
2023-01-03T04:15:08.624Z,102128.97
2023-01-03T04:15:31.188Z,102129.88
2023-01-03T04:15:52.790Z,102121.00
2023-01-03T04:16:14.490Z,102125.41
2023-01-03T04:16:37.686Z,102120.09
2023-01-03T04:17:00.672Z,102125.41
2023-01-03T04:17:23.743Z,102126.34
2023-01-03T04:17:45.383Z,102120.16
2023-01-03T04:18:07.922Z,102127.25
2023-01-03T04:18:29.697Z,102123.72
2023-01-03T04:18:51.301Z,102121.94
2023-01-03T04:19:13.019Z,102126.38
2023-01-03T04:19:34.639Z,102127.28
2023-01-03T04:19:57.195Z,102118.47
2023-01-03T04:20:19.170Z,102099.94
2023-01-03T04:20:40.759Z,102128.13
2023-01-03T04:21:02.561Z,102120.19
2023-01-03T04:21:24.162Z,102128.13
2023-01-03T04:21:46.756Z,102131.66
2023-01-03T04:22:08.412Z,102110.50
2023-01-03T04:22:30.035Z,102128.13
2023-01-03T04:22:51.624Z,102130.78
2023-01-03T04:23:13.243Z,102122.81
2023-01-03T04:23:35.843Z,102127.25
2023-01-03T04:23:58.374Z,102120.16
2023-01-03T04:24:22.458Z,102123.75
2023-01-03T04:24:46.669Z,102127.25
2023-01-03T04:25:10.904Z,102117.53
2023-01-03T04:25:34.022Z,102120.22
2023-01-03T04:25:56.098Z,102123.75
2023-01-03T04:26:18.525Z,102122.88
2023-01-03T04:26:42.014Z,102115.78
2023-01-03T04:27:06.681Z,102126.41
2023-01-03T04:27:31.974Z,102124.66
2023-01-03T04:27:58.528Z,102112.28
2023-01-03T04:28:21.624Z,102126.41
2023-01-03T04:28:44.100Z,102121.09
2023-01-03T04:29:07.325Z,102121.94
2023-01-03T04:29:31.742Z,102121.97
2023-01-03T04:29:59.625Z,102122.88
2023-01-03T04:30:23.595Z,102123.75
2023-01-03T04:30:47.221Z,102126.41
2023-01-03T04:31:10.620Z,102129.97
2023-01-03T04:31:35.120Z,102128.22
2023-01-03T04:32:02.051Z,102117.59
2023-01-03T04:32:28.983Z,102130.91
2023-01-03T04:32:52.418Z,102125.59
2023-01-03T04:33:15.973Z,102129.13
2023-01-03T04:33:37.938Z,102122.94
2023-01-03T04:34:00.658Z,102124.78
2023-01-03T04:34:23.403Z,102113.28
2023-01-03T04:34:45.105Z,102116.81
2023-01-03T04:35:07.828Z,102121.22
2023-01-03T04:35:29.702Z,102128.31
2023-01-03T04:35:52.404Z,102124.78
2023-01-03T04:36:14.181Z,102110.63
2023-01-03T04:36:35.826Z,102123.88
2023-01-03T04:36:57.444Z,102119.44
2023-01-03T04:37:20.102Z,102122.97
2023-01-03T04:37:41.773Z,102123.88
2023-01-03T04:38:04.240Z,102127.41
2023-01-03T04:38:26.873Z,102120.31
2023-01-03T04:38:48.892Z,102108.91
2023-01-03T04:39:10.714Z,102123.88
2023-01-03T04:39:32.405Z,102124.78
2023-01-03T04:39:55.140Z,102116.84
2023-01-03T04:40:16.856Z,102121.19
2023-01-03T04:40:38.826Z,102130.06
2023-01-03T04:41:04.126Z,102128.28
2023-01-03T04:41:25.872Z,102123.81
2023-01-03T04:41:48.643Z,102128.28
2023-01-03T04:42:25.150Z,102107.13
2023-01-03T04:43:05.307Z,102125.63
2023-01-03T04:43:45.571Z,102121.19
2023-01-03T04:44:07.400Z,102109.75
2023-01-03T04:44:29.110Z,102107.09
2023-01-03T04:44:52.938Z,102116.84
2023-01-03T04:45:15.070Z,102122.97
2023-01-03T04:45:37.201Z,102118.50
2023-01-03T04:46:00.224Z,102118.53
2023-01-03T04:46:22.757Z,102125.63
2023-01-03T04:46:52.286Z,102118.50
2023-01-03T04:47:17.925Z,102114.06
2023-01-03T04:47:42.477Z,102116.72
2023-01-03T04:48:04.824Z,102120.22
2023-01-03T04:48:26.852Z,102121.09
2023-01-03T04:48:51.476Z,102116.63
2023-01-03T04:49:15.688Z,102118.44
2023-01-03T04:49:37.510Z,102126.38
2023-01-03T04:50:01.256Z,102108.78
2023-01-03T04:50:23.921Z,102124.63
2023-01-03T04:50:56.145Z,102123.72
2023-01-03T04:51:17.979Z,102129.03
2023-01-03T04:51:39.871Z,102121.03
2023-01-03T04:52:02.525Z,102119.25
2023-01-03T04:52:24.433Z,102121.91
2023-01-03T04:52:46.115Z,102120.16
2023-01-03T04:53:08.637Z,102121.91
2023-01-03T04:53:32.865Z,102121.03
2023-01-03T04:53:58.196Z,102121.09
2023-01-03T04:54:23.240Z,102118.38
2023-01-03T04:54:44.929Z,102122.81
2023-01-03T04:55:09.955Z,102121.88
2023-01-03T04:55:32.835Z,102120.09
2023-01-03T04:55:56.977Z,102120.94
2023-01-03T04:56:24.168Z,102120.91
2023-01-03T04:56:47.249Z,102119.16
2023-01-03T04:57:11.732Z,102110.34
2023-01-03T04:57:33.936Z,102119.09
2023-01-03T04:58:01.483Z,102117.38
2023-01-03T04:58:23.442Z,102121.75
2023-01-03T04:58:46.365Z,102123.53
2023-01-03T04:59:08.037Z,102125.31
2023-01-03T04:59:31.817Z,102124.44
2023-01-03T04:59:56.163Z,102120.88
2023-01-03T05:00:19.560Z,102127.94
2023-01-03T05:00:42.377Z,102126.16